Terminal Aerodrome Forecast
Issued by NWS

Home | Current Version | Previous Version | Text Only | Print | Product List | Glossary On
Versions: 1 2 3 4 5 6 7 8 9 10 11 12 13
000
FTUS46 KPDT 270538
TAFPSC
TAF
KPSC 270538Z 2706/2806 22010KT P6SM SCT120 BKN250
     FM270800 22008KT P6SM SCT120 SCT250
     FM271500 28014G24KT P6SM SCT100
     FM272000 28016G26KT P6SM SCT100
     FM280400 28012G22KT P6SM SCT100=

USA.gov is the U.S. government's official web portal to all federal, state and local government web resources and services.